createdAt,value
2016-11-25T00:00:01.101Z,6.02
2016-11-25T00:00:41.891Z,6.01
2016-11-25T00:01:22.584Z,5.83
2016-11-25T00:02:03.332Z,5.84
2016-11-25T00:02:43.980Z,5.9
2016-11-25T00:03:24.690Z,5.95
2016-11-25T00:04:05.366Z,5.99
2016-11-25T00:04:46.017Z,5.96
2016-11-25T00:05:26.732Z,6.02
2016-11-25T00:06:07.420Z,6.01
2016-11-25T00:06:48.159Z,5.9
2016-11-25T00:07:28.894Z,6.01
2016-11-25T00:08:09.668Z,6.03
2016-11-25T00:08:50.304Z,6.02
2016-11-25T00:09:31.992Z,5.98
2016-11-25T00:10:12.671Z,6.1
2016-11-25T00:10:53.402Z,6.05
2016-11-25T00:11:34.072Z,6.03
2016-11-25T00:12:14.757Z,6.03
2016-11-25T00:12:55.434Z,6.17
2016-11-25T00:13:36.110Z,6.16
2016-11-25T00:14:16.770Z,6.14
2016-11-25T00:14:58.226Z,6.11
2016-11-25T00:15:38.118Z,6.03
2016-11-25T00:16:18.790Z,6.13
2016-11-25T00:16:59.512Z,6.13
2016-11-25T00:17:40.137Z,6.16
2016-11-25T00:18:20.903Z,6.03
2016-11-25T00:19:01.504Z,6.1
2016-11-25T00:19:42.263Z,6.2
2016-11-25T00:20:22.946Z,6.2
2016-11-25T00:21:03.658Z,6.2
2016-11-25T00:21:44.310Z,6.21
2016-11-25T00:22:24.983Z,6.17
2016-11-25T00:23:05.620Z,6.2
2016-11-25T00:23:46.278Z,6.32
2016-11-25T00:24:26.974Z,6.32
2016-11-25T00:25:07.704Z,6.32
2016-11-25T00:25:48.439Z,6.28
2016-11-25T00:26:29.125Z,6.35
2016-11-25T00:27:09.787Z,6.42
2016-11-25T00:27:50.443Z,6.32
2016-11-25T00:28:31.095Z,6.19
2016-11-25T00:29:11.806Z,6.35
2016-11-25T00:29:52.492Z,6.35
2016-11-25T00:30:33.205Z,6.3
2016-11-25T00:31:14.106Z,6.35
2016-11-25T00:31:54.879Z,6.39
2016-11-25T00:32:35.527Z,6.33
2016-11-25T00:33:16.211Z,6.32
2016-11-25T00:33:56.806Z,6.33
2016-11-25T00:34:37.615Z,6.43
2016-11-25T00:35:18.289Z,6.33
2016-11-25T00:35:58.946Z,6.4
2016-11-25T00:36:39.616Z,6.3
2016-11-25T00:37:20.378Z,6.39
2016-11-25T00:38:01.227Z,6.35
2016-11-25T00:38:42.020Z,6.43
2016-11-25T00:39:22.731Z,6.35
2016-11-25T00:40:03.472Z,6.3
2016-11-25T00:40:44.164Z,6.45
2016-11-25T00:41:24.825Z,6.36
2016-11-25T00:42:05.547Z,6.46
2016-11-25T00:42:46.320Z,6.54
2016-11-25T00:43:27.046Z,6.5
2016-11-25T00:44:07.814Z,6.58
2016-11-25T00:44:48.556Z,6.45
2016-11-25T00:45:29.428Z,6.51
2016-11-25T00:46:10.228Z,6.46
2016-11-25T00:46:50.954Z,6.53
2016-11-25T00:47:31.720Z,6.51
2016-11-25T00:48:12.371Z,6.68
2016-11-25T00:48:52.982Z,6.55
2016-11-25T00:49:33.586Z,6.57
2016-11-25T00:50:14.391Z,6.6
2016-11-25T00:50:55.189Z,6.54
2016-11-25T00:51:35.941Z,6.63
2016-11-25T00:52:16.668Z,6.55
2016-11-25T00:52:57.360Z,6.48
2016-11-25T00:53:38.047Z,6.46
2016-11-25T00:54:18.726Z,6.54
2016-11-25T00:54:59.427Z,6.64
2016-11-25T00:55:40.069Z,6.63
2016-11-25T00:56:20.674Z,6.68
2016-11-25T00:57:01.314Z,6.53
2016-11-25T00:57:41.914Z,6.5
2016-11-25T00:58:22.547Z,6.48
2016-11-25T00:59:03.130Z,6.51
2016-11-25T00:59:43.939Z,6.5
2016-11-25T01:00:24.558Z,6.5
2016-11-25T01:01:05.341Z,6.48
2016-11-25T01:01:46.090Z,6.43
2016-11-25T01:02:26.777Z,6.58
2016-11-25T01:03:07.443Z,6.42
2016-11-25T01:03:48.148Z,6.5
2016-11-25T01:04:28.840Z,6.45
2016-11-25T01:05:09.510Z,6.46
2016-11-25T01:05:50.169Z,6.43
2016-11-25T01:06:30.781Z,6.24
2016-11-25T01:07:11.480Z,6.36
2016-11-25T01:07:52.184Z,6.33
2016-11-25T01:08:32.971Z,6.3
2016-11-25T01:09:13.771Z,6.32
2016-11-25T01:09:54.514Z,6.39
2016-11-25T01:10:35.253Z,6.42
2016-11-25T01:11:15.913Z,6.32
2016-11-25T01:11:56.544Z,6.21
2016-11-25T01:12:37.168Z,6.28
2016-11-25T01:13:17.883Z,6.17
2016-11-25T01:13:58.572Z,6.11
2016-11-25T01:14:39.285Z,6.2
2016-11-25T01:15:20.092Z,6.13
2016-11-25T01:16:00.839Z,6.08
2016-11-25T01:16:41.507Z,6.19
2016-11-25T01:17:22.150Z,6.25
2016-11-25T01:18:02.838Z,6.35
2016-11-25T01:18:43.403Z,6.32
2016-11-25T01:19:23.977Z,6.2
2016-11-25T01:20:04.756Z,6.11
2016-11-25T01:20:45.532Z,6.13
2016-11-25T01:21:26.287Z,6.21
2016-11-25T01:22:06.966Z,6.08
2016-11-25T01:22:47.617Z,6.03
2016-11-25T01:23:28.336Z,5.95
2016-11-25T01:24:09.069Z,6.06
2016-11-25T01:24:49.749Z,6.1
2016-11-25T01:25:30.343Z,6.2
2016-11-25T01:26:11.040Z,6.1
2016-11-25T01:26:51.653Z,6.08
2016-11-25T01:27:32.328Z,6.06
2016-11-25T01:28:13.046Z,6.16
2016-11-25T01:28:53.868Z,6.01
2016-11-25T01:29:34.489Z,5.96
2016-11-25T01:30:15.146Z,5.96
2016-11-25T01:30:55.867Z,5.96
2016-11-25T01:31:36.518Z,5.99
2016-11-25T01:32:17.134Z,5.98
2016-11-25T01:32:57.800Z,5.96
2016-11-25T01:33:38.490Z,5.92
2016-11-25T01:34:19.104Z,5.88
2016-11-25T01:34:59.745Z,5.88
2016-11-25T01:35:40.546Z,5.88
2016-11-25T01:36:21.141Z,5.8
2016-11-25T01:37:01.978Z,5.95
2016-11-25T01:37:42.624Z,5.83
2016-11-25T01:38:23.465Z,5.8
2016-11-25T01:39:04.151Z,5.9
2016-11-25T01:39:44.755Z,5.83
2016-11-25T01:40:25.519Z,5.78
2016-11-25T01:41:06.262Z,5.74
2016-11-25T01:41:46.908Z,5.96
2016-11-25T01:42:27.591Z,5.78
2016-11-25T01:43:08.345Z,5.85
2016-11-25T01:43:49.135Z,5.88
2016-11-25T01:44:29.856Z,5.83
2016-11-25T01:45:10.572Z,5.88
2016-11-25T01:45:51.279Z,5.6
2016-11-25T01:46:31.878Z,5.73
2016-11-25T01:47:12.614Z,5.69
2016-11-25T01:47:53.245Z,5.67
2016-11-25T01:48:33.908Z,5.7
2016-11-25T01:49:14.653Z,5.78
2016-11-25T01:49:55.338Z,5.74
2016-11-25T01:50:36.203Z,5.63
2016-11-25T01:51:17.011Z,5.62
2016-11-25T01:51:57.662Z,5.78
2016-11-25T01:52:38.380Z,5.8
2016-11-25T01:53:19.144Z,5.59
2016-11-25T01:54:00.001Z,5.58
2016-11-25T01:54:40.815Z,5.44
2016-11-25T01:55:22.443Z,5.51
2016-11-25T01:56:03.190Z,5.51
2016-11-25T01:56:44.147Z,5.56
2016-11-25T01:57:24.823Z,5.51
2016-11-25T01:58:05.561Z,5.49
2016-11-25T01:58:46.339Z,5.42
2016-11-25T01:59:27.003Z,5.38
2016-11-25T02:00:07.666Z,5.42
2016-11-25T02:00:48.389Z,5.48
2016-11-25T02:01:29.095Z,5.41
2016-11-25T02:02:09.876Z,5.41
2016-11-25T02:02:50.460Z,5.41
2016-11-25T02:03:31.149Z,5.45
2016-11-25T02:04:11.793Z,5.51
2016-11-25T02:04:53.377Z,5.45
2016-11-25T02:05:34.043Z,5.51
2016-11-25T02:06:14.703Z,5.48
2016-11-25T02:06:55.371Z,5.49
2016-11-25T02:07:36.048Z,5.55
2016-11-25T02:08:16.727Z,5.47
2016-11-25T02:08:57.600Z,5.41
2016-11-25T02:09:38.250Z,5.26
2016-11-25T02:10:18.943Z,5.42
2016-11-25T02:10:59.638Z,5.47
2016-11-25T02:11:40.396Z,5.33
2016-11-25T02:12:21.054Z,5.4
2016-11-25T02:13:01.880Z,5.38
2016-11-25T02:13:42.462Z,5.22
2016-11-25T02:14:23.119Z,5.27
2016-11-25T02:15:03.932Z,5.26
2016-11-25T02:15:44.586Z,5.29
2016-11-25T02:16:25.307Z,5.26
2016-11-25T02:17:06.714Z,5.2
2016-11-25T02:17:46.587Z,5.32
2016-11-25T02:18:27.338Z,5.2
2016-11-25T02:19:08.079Z,5.35
2016-11-25T02:19:48.754Z,5.3
2016-11-25T02:20:29.407Z,5.38
2016-11-25T02:21:10.032Z,5.44
2016-11-25T02:21:50.585Z,5.22
2016-11-25T02:22:31.295Z,5.41
2016-11-25T02:23:11.839Z,5.38
2016-11-25T02:23:52.581Z,5.4
2016-11-25T02:24:33.848Z,5.42
2016-11-25T02:25:14.476Z,5.49
2016-11-25T02:25:55.229Z,5.45
2016-11-25T02:26:35.936Z,5.45
2016-11-25T02:27:16.463Z,5.47
2016-11-25T02:27:57.175Z,5.45
2016-11-25T02:28:37.784Z,5.38
2016-11-25T02:29:18.483Z,5.33
2016-11-25T02:29:59.112Z,5.48
2016-11-25T02:30:39.804Z,5.42
2016-11-25T02:32:53.233Z,5.32
2016-11-25T02:33:33.964Z,5.4
2016-11-25T02:34:14.845Z,5.47
2016-11-25T02:34:55.709Z,5.48
2016-11-25T02:35:36.416Z,5.48
2016-11-25T02:36:17.010Z,5.48
2016-11-25T02:36:57.587Z,5.35
2016-11-25T02:37:38.275Z,5.23
2016-11-25T02:38:19.012Z,5.26
2016-11-25T02:38:59.675Z,5.17
2016-11-25T02:39:40.344Z,5.3
2016-11-25T02:40:20.960Z,5.24
2016-11-25T02:41:01.607Z,5.26
2016-11-25T02:41:42.309Z,5.35
2016-11-25T02:42:22.917Z,5.3
2016-11-25T02:43:03.552Z,5.3
2016-11-25T02:43:44.303Z,5.27
2016-11-25T02:44:25.187Z,5.05
2016-11-25T02:45:06.103Z,5.17
2016-11-25T02:45:46.939Z,5.2
2016-11-25T02:46:27.871Z,5.22
2016-11-25T02:47:08.846Z,5.01
2016-11-25T02:47:49.724Z,5.2
2016-11-25T02:48:30.613Z,5.17
2016-11-25T02:49:11.242Z,5.09
2016-11-25T02:49:51.954Z,5.08
2016-11-25T02:50:32.698Z,5.05
2016-11-25T02:51:13.488Z,5.08
2016-11-25T02:51:54.194Z,5.15
2016-11-25T02:52:35.073Z,5.08
2016-11-25T02:53:15.948Z,5.08
2016-11-25T02:53:56.643Z,4.97
2016-11-25T02:54:37.424Z,4.99
2016-11-25T02:55:18.253Z,5.05
2016-11-25T02:55:59.052Z,5.01
2016-11-25T02:56:39.910Z,4.94
2016-11-25T02:57:20.727Z,4.84
2016-11-25T02:58:01.446Z,4.83
2016-11-25T02:58:42.140Z,4.88
2016-11-25T02:59:23.016Z,4.91
2016-11-25T03:00:03.865Z,4.88
2016-11-25T03:00:44.660Z,4.86
2016-11-25T03:02:32.248Z,4.9
2016-11-25T03:03:13.025Z,4.84
2016-11-25T03:03:53.820Z,4.83
2016-11-25T03:04:34.587Z,4.91
2016-11-25T03:05:15.303Z,5.02
2016-11-25T03:05:55.988Z,4.91
2016-11-25T03:06:36.682Z,4.84
2016-11-25T03:07:17.466Z,4.79
2016-11-25T03:07:58.259Z,5.02
2016-11-25T03:08:39.021Z,4.87
2016-11-25T03:09:19.968Z,4.8
2016-11-25T03:10:01.078Z,4.84
2016-11-25T03:10:41.771Z,4.96
2016-11-25T03:11:22.756Z,5.08
2016-11-25T03:12:04.218Z,4.87
2016-11-25T03:12:45.045Z,4.9
2016-11-25T03:13:25.846Z,4.8
2016-11-25T03:14:06.784Z,4.8
2016-11-25T03:14:47.546Z,4.75
2016-11-25T03:15:28.397Z,4.79
2016-11-25T03:16:09.152Z,4.91
2016-11-25T03:16:49.827Z,4.93
2016-11-25T03:17:30.681Z,4.86
2016-11-25T03:18:11.467Z,4.8
2016-11-25T03:18:52.499Z,4.75
2016-11-25T03:19:33.356Z,4.86
2016-11-25T03:20:14.342Z,4.84
2016-11-25T03:20:55.462Z,4.86
2016-11-25T03:22:33.121Z,4.97
2016-11-25T03:23:13.966Z,4.87
2016-11-25T03:23:54.679Z,4.93
2016-11-25T03:24:35.405Z,4.96
2016-11-25T03:25:16.326Z,4.77
2016-11-25T03:25:57.183Z,4.86
2016-11-25T03:26:38.022Z,4.83
2016-11-25T03:27:18.992Z,4.88
2016-11-25T03:27:59.926Z,4.84
2016-11-25T03:28:41.266Z,4.96
2016-11-25T03:29:22.108Z,4.83
2016-11-25T03:30:02.801Z,4.77
2016-11-25T03:30:43.891Z,4.64
2016-11-25T03:31:24.993Z,4.79
2016-11-25T03:32:06.021Z,4.65
2016-11-25T03:32:46.817Z,4.75
2016-11-25T03:33:27.615Z,4.8
2016-11-25T03:34:08.571Z,4.77
2016-11-25T03:34:49.384Z,4.77
2016-11-25T03:35:30.558Z,4.84
2016-11-25T03:36:11.173Z,4.79
2016-11-25T03:36:51.924Z,4.77
2016-11-25T03:37:33.288Z,4.8
2016-11-25T03:38:14.274Z,4.64
2016-11-25T03:38:55.483Z,4.75
2016-11-25T03:39:36.553Z,4.67
2016-11-25T03:40:17.553Z,4.61
2016-11-25T03:40:58.476Z,4.49
2016-11-25T03:41:39.521Z,4.46
2016-11-25T03:42:20.659Z,4.64
2016-11-25T03:43:01.624Z,4.65
2016-11-25T03:43:42.615Z,4.61
2016-11-25T03:44:23.442Z,4.56
2016-11-25T03:45:04.511Z,4.53
2016-11-25T03:45:45.307Z,4.43
2016-11-25T03:46:26.194Z,4.61
2016-11-25T03:47:07.147Z,4.69
2016-11-25T03:47:48.137Z,4.68
2016-11-25T03:48:29.230Z,4.64
2016-11-25T03:49:10.112Z,4.5
2016-11-25T03:49:50.936Z,4.51
2016-11-25T03:50:31.855Z,4.68
2016-11-25T03:51:12.752Z,4.62
2016-11-25T03:51:53.707Z,4.47
2016-11-25T03:52:34.745Z,4.53
2016-11-25T03:53:16.087Z,4.64
2016-11-25T03:53:57.229Z,4.56
2016-11-25T03:54:38.457Z,4.62
2016-11-25T03:55:19.229Z,4.62
2016-11-25T03:56:00.384Z,4.57
2016-11-25T03:56:41.693Z,4.64
2016-11-25T03:57:22.967Z,4.69
2016-11-25T03:58:03.988Z,4.67
2016-11-25T03:58:44.923Z,4.77
2016-11-25T03:59:25.868Z,4.84
2016-11-25T04:00:06.714Z,4.79
2016-11-25T04:00:47.758Z,4.69
2016-11-25T04:01:28.603Z,4.61
2016-11-25T04:02:09.664Z,4.62
2016-11-25T04:02:51.140Z,4.62
2016-11-25T04:03:32.268Z,4.59
2016-11-25T04:04:13.416Z,4.51
2016-11-25T04:04:54.466Z,4.5
2016-11-25T04:05:35.485Z,4.64
2016-11-25T04:06:16.668Z,4.47
2016-11-25T04:06:57.690Z,4.51
2016-11-25T04:07:38.482Z,4.53
2016-11-25T04:08:19.613Z,4.49
2016-11-25T04:09:00.865Z,4.62
2016-11-25T04:09:41.957Z,4.65
2016-11-25T04:10:23.116Z,4.62
2016-11-25T04:11:04.172Z,4.61
2016-11-25T04:11:45.214Z,4.68
2016-11-25T04:12:26.180Z,4.67
2016-11-25T04:13:07.108Z,4.46
2016-11-25T04:13:48.178Z,4.67
2016-11-25T04:14:29.295Z,4.69
2016-11-25T04:15:10.684Z,4.71
2016-11-25T04:15:51.645Z,4.62
2016-11-25T04:16:32.647Z,4.62
2016-11-25T04:17:13.988Z,4.64
2016-11-25T04:17:55.120Z,4.57
2016-11-25T04:18:36.218Z,4.62
2016-11-25T04:19:18.312Z,4.65
2016-11-25T04:19:59.340Z,4.5
2016-11-25T04:20:40.328Z,4.51
2016-11-25T04:21:21.314Z,4.47
2016-11-25T04:22:02.520Z,4.62
2016-11-25T04:22:43.571Z,4.49
2016-11-25T04:23:24.540Z,4.47
2016-11-25T04:24:05.867Z,4.5
2016-11-25T04:24:46.989Z,4.5
2016-11-25T04:25:28.104Z,4.43
2016-11-25T04:26:09.097Z,4.47
2016-11-25T04:26:49.922Z,4.56
2016-11-25T04:27:30.846Z,4.44
2016-11-25T04:28:11.942Z,4.46
2016-11-25T04:28:53.051Z,4.54
2016-11-25T04:29:34.449Z,4.36
2016-11-25T04:30:15.474Z,4.42
2016-11-25T04:30:56.732Z,4.46
2016-11-25T04:31:37.886Z,4.44
2016-11-25T04:32:19.411Z,4.54
2016-11-25T04:33:00.591Z,4.51
2016-11-25T04:33:41.541Z,4.49
2016-11-25T04:34:22.423Z,4.43
2016-11-25T04:35:03.579Z,4.47
2016-11-25T04:35:44.368Z,4.42
2016-11-25T04:36:25.484Z,4.26
2016-11-25T04:37:06.538Z,4.39
2016-11-25T04:37:47.368Z,4.44
2016-11-25T04:38:28.237Z,4.51
2016-11-25T04:39:09.023Z,4.32
2016-11-25T04:39:49.783Z,4.34
2016-11-25T04:40:30.761Z,4.38
2016-11-25T04:41:11.922Z,4.59
2016-11-25T04:41:52.627Z,4.47
2016-11-25T04:42:33.547Z,4.36
2016-11-25T04:43:14.629Z,4.35
2016-11-25T04:43:55.666Z,4.29
2016-11-25T04:44:36.580Z,4.34
2016-11-25T04:45:17.614Z,4.34
2016-11-25T04:45:58.717Z,4.38
2016-11-25T04:46:39.667Z,4.28
2016-11-25T04:47:20.886Z,4.29
2016-11-25T04:48:02.154Z,4.26
2016-11-25T04:48:43.564Z,4.28
2016-11-25T04:49:24.516Z,4.24
2016-11-25T04:50:05.724Z,4.24
2016-11-25T04:50:46.411Z,4.14
2016-11-25T04:52:44.419Z,4.28
2016-11-25T04:53:25.466Z,4.24
2016-11-25T04:54:06.199Z,4.34
2016-11-25T04:54:47.419Z,4.36
2016-11-25T04:55:28.170Z,4.21
2016-11-25T04:56:09.238Z,4.39
2016-11-25T04:56:50.091Z,4.28
2016-11-25T04:57:30.941Z,4.35
2016-11-25T04:58:11.948Z,4.32
2016-11-25T04:58:53.265Z,4.36
2016-11-25T04:59:34.028Z,4.32
2016-11-25T05:00:15.341Z,4.28
2016-11-25T05:00:56.480Z,4.25
2016-11-25T05:01:37.580Z,4.35
2016-11-25T05:02:18.384Z,4.34
2016-11-25T05:02:59.587Z,4.24
2016-11-25T05:03:40.467Z,4.36
2016-11-25T05:04:21.363Z,4.35
2016-11-25T05:05:02.401Z,4.36
2016-11-25T05:05:43.550Z,4.36
2016-11-25T05:06:24.614Z,4.32
2016-11-25T05:07:05.535Z,4.39
2016-11-25T05:07:46.673Z,4.16
2016-11-25T05:08:28.063Z,4.18
2016-11-25T05:09:09.194Z,4.18
2016-11-25T05:09:50.360Z,4.31
2016-11-25T05:10:31.426Z,4.24
2016-11-25T05:11:12.735Z,4.21
2016-11-25T05:11:53.552Z,4.26
2016-11-25T05:12:34.537Z,4.25
2016-11-25T05:13:15.387Z,4.26
2016-11-25T05:13:56.447Z,4.18
2016-11-25T05:14:37.575Z,4.24
2016-11-25T05:15:18.604Z,4.26
2016-11-25T05:15:59.738Z,4.24
2016-11-25T05:16:40.812Z,4.31
2016-11-25T05:17:21.952Z,4.24
2016-11-25T05:18:03.106Z,4.14
2016-11-25T05:18:44.096Z,4.26
2016-11-25T05:19:25.384Z,4.26
2016-11-25T05:20:06.148Z,4.28
2016-11-25T05:20:47.505Z,4.17
2016-11-25T05:21:28.159Z,4.17
2016-11-25T05:22:09.130Z,4.18
2016-11-25T05:22:49.948Z,4.24
2016-11-25T05:23:31.018Z,4.25
2016-11-25T05:24:12.108Z,4.17
2016-11-25T05:24:53.006Z,4.28
2016-11-25T05:25:34.065Z,4.26
2016-11-25T05:26:14.974Z,4.24
2016-11-25T05:26:56.020Z,4.26
2016-11-25T05:27:37.064Z,4.17
2016-11-25T05:28:17.958Z,4.17
2016-11-25T05:28:58.963Z,4.17
2016-11-25T05:29:40.044Z,4.02
2016-11-25T05:30:20.873Z,4.13
2016-11-25T05:31:01.826Z,4.17
2016-11-25T05:31:42.777Z,4.02
2016-11-25T05:32:23.581Z,4.08
2016-11-25T05:33:04.447Z,4.2
2016-11-25T05:33:45.371Z,4.16
2016-11-25T05:34:26.514Z,4.13
2016-11-25T05:35:07.504Z,4.06
2016-11-25T05:35:48.471Z,4.24
2016-11-25T05:36:29.612Z,4.2
2016-11-25T05:37:10.353Z,4.25
2016-11-25T05:37:51.470Z,4.25
2016-11-25T05:38:32.491Z,4.28
2016-11-25T05:39:13.281Z,4.2
2016-11-25T05:39:54.435Z,4.18
2016-11-25T05:40:35.276Z,4.11
2016-11-25T05:41:16.411Z,4.1
2016-11-25T05:41:57.211Z,4.14
2016-11-25T05:42:38.169Z,4.25
2016-11-25T05:43:19.196Z,4.11
2016-11-25T05:44:00.071Z,4.14
2016-11-25T05:44:41.031Z,4.13
2016-11-25T05:45:21.853Z,4.11
2016-11-25T05:46:02.944Z,4.08
2016-11-25T05:46:43.779Z,4.16
2016-11-25T05:47:24.561Z,4.14
2016-11-25T05:48:05.341Z,4.1
2016-11-25T05:48:46.167Z,3.95
2016-11-25T05:49:27.156Z,3.99
2016-11-25T05:50:07.830Z,4.08
2016-11-25T05:50:48.801Z,4.17
2016-11-25T05:51:29.734Z,4.13
2016-11-25T05:52:10.573Z,3.95
2016-11-25T05:52:51.346Z,4.13
2016-11-25T05:53:32.178Z,4.11
2016-11-25T05:54:12.979Z,3.95
2016-11-25T05:54:53.953Z,4.06
2016-11-25T05:55:34.938Z,4.06
2016-11-25T05:56:15.800Z,4.07
2016-11-25T05:56:56.685Z,3.84
2016-11-25T05:57:37.532Z,4.06
2016-11-25T05:58:18.463Z,4
2016-11-25T05:58:59.480Z,3.92
2016-11-25T05:59:40.345Z,3.9
2016-11-25T06:00:21.135Z,3.93
2016-11-25T06:01:02.001Z,3.92
2016-11-25T06:01:42.854Z,3.78
2016-11-25T06:02:23.538Z,3.95
2016-11-25T06:03:04.465Z,3.98
2016-11-25T06:03:45.320Z,3.82
2016-11-25T06:04:26.070Z,3.8
2016-11-25T06:05:06.884Z,3.89
2016-11-25T06:05:47.971Z,3.92
2016-11-25T06:06:28.928Z,3.88
2016-11-25T06:07:09.813Z,3.89
2016-11-25T06:07:50.582Z,3.81
2016-11-25T06:08:31.326Z,3.71
2016-11-25T06:09:12.092Z,3.92
2016-11-25T06:09:52.907Z,3.77
2016-11-25T06:10:33.885Z,3.8
2016-11-25T06:11:14.915Z,3.86
2016-11-25T06:11:55.982Z,3.98
2016-11-25T06:12:36.878Z,3.96
2016-11-25T06:13:17.539Z,3.81
2016-11-25T06:13:58.495Z,3.86
2016-11-25T06:14:39.278Z,3.82
2016-11-25T06:15:20.145Z,3.88
2016-11-25T06:16:01.010Z,3.78
2016-11-25T06:16:41.889Z,3.78
2016-11-25T06:17:22.718Z,3.75
2016-11-25T06:18:03.620Z,3.74
2016-11-25T06:18:44.514Z,3.82
2016-11-25T06:19:25.323Z,3.77
2016-11-25T06:20:06.359Z,3.75
2016-11-25T06:20:47.216Z,3.59
2016-11-25T06:21:28.170Z,3.56
2016-11-25T06:22:08.887Z,3.64
2016-11-25T06:22:50.011Z,3.77
2016-11-25T06:23:30.793Z,3.72
2016-11-25T06:24:11.825Z,3.67
2016-11-25T06:24:52.757Z,3.68
2016-11-25T06:25:33.524Z,3.54
2016-11-25T06:26:14.710Z,3.6
2016-11-25T06:26:55.628Z,3.62
2016-11-25T06:27:36.475Z,3.62
2016-11-25T06:28:17.217Z,3.64
2016-11-25T06:28:57.896Z,3.63
2016-11-25T06:29:38.616Z,3.54
2016-11-25T06:30:19.589Z,3.57
2016-11-25T06:31:00.438Z,3.68
2016-11-25T06:31:41.470Z,3.78
2016-11-25T06:32:22.277Z,3.7
2016-11-25T06:33:03.016Z,3.75
2016-11-25T06:33:43.839Z,3.71
2016-11-25T06:34:24.694Z,3.68
2016-11-25T06:35:05.569Z,3.63
2016-11-25T06:35:46.366Z,3.63
2016-11-25T06:36:27.318Z,3.75
2016-11-25T06:37:08.475Z,3.71
2016-11-25T06:37:49.469Z,3.68
2016-11-25T06:38:30.026Z,3.75
2016-11-25T06:39:10.847Z,3.75
2016-11-25T06:39:51.506Z,3.8
2016-11-25T06:40:32.264Z,3.81
2016-11-25T06:41:12.987Z,3.7
2016-11-25T06:41:53.949Z,3.64
2016-11-25T06:42:34.660Z,3.54
2016-11-25T06:43:15.291Z,3.54
2016-11-25T06:43:56.097Z,3.7
2016-11-25T06:44:36.839Z,3.74
2016-11-25T06:45:17.803Z,3.74
2016-11-25T06:45:58.568Z,3.64
2016-11-25T06:46:39.179Z,3.75
2016-11-25T06:47:20.018Z,3.62
2016-11-25T06:48:01.071Z,3.74
2016-11-25T06:48:41.883Z,3.8
2016-11-25T06:49:22.814Z,3.72
2016-11-25T06:50:03.667Z,3.75
2016-11-25T06:50:44.641Z,3.72
2016-11-25T06:51:25.588Z,3.84
2016-11-25T06:52:06.430Z,3.68
2016-11-25T06:52:47.390Z,3.78
2016-11-25T06:53:28.458Z,3.68
2016-11-25T06:54:09.323Z,3.72
2016-11-25T06:54:50.073Z,3.72
2016-11-25T06:55:30.730Z,3.78
2016-11-25T06:56:11.585Z,3.78
2016-11-25T06:56:52.259Z,3.8
2016-11-25T06:57:33.097Z,3.81
2016-11-25T06:58:13.703Z,3.75
2016-11-25T06:58:54.512Z,3.8
2016-11-25T06:59:35.341Z,3.82
2016-11-25T07:00:16.128Z,3.75
2016-11-25T07:00:57.066Z,3.72
2016-11-25T07:01:37.930Z,3.78
2016-11-25T07:02:18.858Z,3.89
2016-11-25T07:02:59.849Z,3.75
2016-11-25T07:03:40.743Z,3.8
2016-11-25T07:04:21.610Z,3.78
2016-11-25T07:05:02.555Z,3.75
2016-11-25T07:05:43.472Z,3.93
2016-11-25T07:06:24.323Z,3.93
2016-11-25T07:07:04.962Z,3.88
2016-11-25T07:07:45.930Z,3.82
2016-11-25T07:08:26.784Z,3.78
2016-11-25T07:09:07.539Z,3.74
2016-11-25T07:09:48.514Z,3.74
2016-11-25T07:10:29.475Z,3.8
2016-11-25T07:11:10.465Z,3.57
2016-11-25T07:11:51.208Z,3.67
2016-11-25T07:12:32.141Z,3.75
2016-11-25T07:13:13.005Z,3.64
2016-11-25T07:13:53.941Z,3.74
2016-11-25T07:14:34.739Z,3.75
2016-11-25T07:15:16.461Z,3.7
2016-11-25T07:15:57.493Z,3.62
2016-11-25T07:16:38.301Z,3.67
2016-11-25T07:17:19.139Z,3.63
2016-11-25T07:18:00.158Z,3.63
2016-11-25T07:18:40.943Z,3.74
2016-11-25T07:19:21.853Z,3.8
2016-11-25T07:20:02.859Z,3.72
2016-11-25T07:20:43.831Z,3.71
2016-11-25T07:21:24.537Z,3.64
2016-11-25T07:22:05.278Z,3.59
2016-11-25T07:22:46.129Z,3.64
2016-11-25T07:23:27.239Z,3.7
2016-11-25T07:24:08.164Z,3.71
2016-11-25T07:24:49.131Z,3.7
2016-11-25T07:25:30.113Z,3.54
2016-11-25T07:26:11.230Z,3.64
2016-11-25T07:26:52.145Z,3.7
2016-11-25T07:27:33.130Z,3.67
2016-11-25T07:28:14.166Z,3.64
2016-11-25T07:28:55.111Z,3.68
2016-11-25T07:29:36.529Z,3.67
2016-11-25T07:30:17.597Z,3.68
2016-11-25T07:30:58.508Z,3.77
2016-11-25T07:31:39.213Z,3.7
2016-11-25T07:32:20.262Z,3.77
2016-11-25T07:33:01.039Z,3.64
2016-11-25T07:33:41.918Z,3.56
2016-11-25T07:34:22.670Z,3.68
2016-11-25T07:35:03.609Z,3.75
2016-11-25T07:35:44.374Z,3.74
2016-11-25T07:36:25.076Z,3.74
2016-11-25T07:37:05.937Z,3.84
2016-11-25T07:39:04.602Z,3.71
2016-11-25T07:39:45.758Z,3.75
2016-11-25T07:40:26.887Z,3.86
2016-11-25T07:41:08.647Z,3.78
2016-11-25T07:41:49.872Z,3.86
2016-11-25T07:42:30.849Z,3.78
2016-11-25T07:43:11.851Z,3.77
2016-11-25T07:43:52.780Z,3.8
2016-11-25T07:44:33.503Z,3.88
2016-11-25T07:45:14.422Z,3.8
2016-11-25T07:45:55.237Z,3.84
2016-11-25T07:46:36.234Z,3.92
2016-11-25T07:47:17.008Z,3.81
2016-11-25T07:47:57.990Z,3.89
2016-11-25T07:48:38.861Z,3.86
2016-11-25T07:49:19.942Z,3.89
2016-11-25T07:50:00.708Z,3.92
2016-11-25T07:50:41.724Z,3.9
2016-11-25T07:51:22.566Z,3.9
2016-11-25T07:52:03.472Z,3.92
2016-11-25T07:52:44.288Z,3.96
2016-11-25T07:53:25.021Z,3.96
2016-11-25T07:54:05.797Z,3.93
2016-11-25T07:54:46.765Z,3.88
2016-11-25T07:55:27.839Z,3.88
2016-11-25T07:56:08.648Z,3.92
2016-11-25T07:56:49.297Z,3.95
2016-11-25T07:57:30.261Z,3.9
2016-11-25T07:58:11.075Z,3.99
2016-11-25T07:58:51.806Z,3.95
2016-11-25T07:59:32.912Z,4.08
2016-11-25T08:00:13.851Z,4.04
2016-11-25T08:00:54.856Z,4.1
2016-11-25T08:01:35.777Z,4
2016-11-25T08:02:16.578Z,4.06
2016-11-25T08:02:57.392Z,4.13
2016-11-25T08:03:38.320Z,4.25
2016-11-25T08:04:19.250Z,4.14
2016-11-25T08:05:00.035Z,4.28
2016-11-25T08:05:40.819Z,4.28
2016-11-25T08:06:21.535Z,4.26
2016-11-25T08:07:02.302Z,4.24
2016-11-25T08:07:42.984Z,4.24
2016-11-25T08:08:23.825Z,4.25
2016-11-25T08:09:04.727Z,4.21
2016-11-25T08:09:45.445Z,4.38
2016-11-25T08:10:26.222Z,4.25
2016-11-25T08:11:06.935Z,4.34
2016-11-25T08:11:47.732Z,4.36
2016-11-25T08:12:28.487Z,4.49
2016-11-25T08:13:09.541Z,4.46
2016-11-25T08:13:50.335Z,4.36
2016-11-25T08:14:31.290Z,4.49
2016-11-25T08:15:12.652Z,4.44
2016-11-25T08:15:53.492Z,4.53
2016-11-25T08:16:34.262Z,4.57
2016-11-25T08:17:15.312Z,4.59
2016-11-25T08:17:56.178Z,4.68
2016-11-25T08:18:37.218Z,4.64
2016-11-25T08:19:18.035Z,4.65
2016-11-25T08:19:58.795Z,4.64
2016-11-25T08:20:39.644Z,4.56
2016-11-25T08:21:20.445Z,4.67
2016-11-25T08:22:01.091Z,4.69
2016-11-25T08:24:14.104Z,4.84
2016-11-25T08:26:06.678Z,4.97
2016-11-25T08:26:47.251Z,5.08
2016-11-25T08:27:27.936Z,5.04
2016-11-25T08:28:08.673Z,5.05
2016-11-25T08:28:49.484Z,5.02
2016-11-25T08:29:30.341Z,5.01
2016-11-25T08:30:11.213Z,5.09
2016-11-25T08:30:51.943Z,5.19
2016-11-25T08:31:32.914Z,5.19
2016-11-25T08:32:13.744Z,5.27
2016-11-25T08:32:54.495Z,5.2
2016-11-25T08:33:35.454Z,5.15
2016-11-25T08:34:16.256Z,5.27
2016-11-25T08:34:57.269Z,5.37
2016-11-25T08:35:38.213Z,5.27
2016-11-25T08:36:19.211Z,5.32
2016-11-25T08:37:00.068Z,5.41
2016-11-25T08:37:40.911Z,5.37
2016-11-25T08:38:21.712Z,5.41
2016-11-25T08:39:02.630Z,5.4
2016-11-25T08:39:43.505Z,5.29
2016-11-25T08:40:24.413Z,5.42
2016-11-25T08:41:05.991Z,5.42
2016-11-25T08:41:46.782Z,5.7
2016-11-25T08:42:27.704Z,5.58
2016-11-25T08:43:08.517Z,5.48
2016-11-25T08:43:49.537Z,5.62
2016-11-25T08:44:30.379Z,5.66
2016-11-25T08:45:11.212Z,5.77
2016-11-25T08:45:52.047Z,5.75
2016-11-25T08:46:32.830Z,5.92
2016-11-25T08:47:13.563Z,5.78
2016-11-25T08:47:54.313Z,5.88
2016-11-25T08:48:35.229Z,5.9
2016-11-25T08:49:16.098Z,6.01
2016-11-25T08:49:56.826Z,5.98
2016-11-25T08:50:37.616Z,6.01
2016-11-25T08:51:18.456Z,6.1
2016-11-25T08:51:59.266Z,6.02
2016-11-25T08:52:40.101Z,6.14
2016-11-25T08:53:21.207Z,6.14
2016-11-25T08:54:02.319Z,6.32
2016-11-25T08:54:43.162Z,6.2
2016-11-25T08:55:23.955Z,6.3
2016-11-25T08:56:04.780Z,6.4
2016-11-25T08:56:45.750Z,6.45
2016-11-25T08:57:26.740Z,6.38
2016-11-25T08:58:07.730Z,6.43
2016-11-25T08:58:48.526Z,6.46
2016-11-25T08:59:29.294Z,6.5
2016-11-25T09:00:10.063Z,6.46
2016-11-25T09:00:51.121Z,6.65
2016-11-25T09:01:32.091Z,6.48
2016-11-25T09:02:13.210Z,6.61
2016-11-25T09:02:54.258Z,6.65
2016-11-25T09:03:35.059Z,6.71
2016-11-25T09:04:15.935Z,6.58
2016-11-25T09:04:56.575Z,6.6
2016-11-25T09:05:37.420Z,6.64
2016-11-25T09:06:18.349Z,6.72
2016-11-25T09:06:59.239Z,6.75
2016-11-25T09:07:40.146Z,6.83
2016-11-25T09:08:21.071Z,6.76
2016-11-25T09:09:02.133Z,6.86
2016-11-25T09:09:42.855Z,6.78
2016-11-25T09:10:23.810Z,6.94
2016-11-25T09:11:04.629Z,6.79
2016-11-25T09:11:45.878Z,6.73
2016-11-25T09:12:26.793Z,6.89
2016-11-25T09:13:07.571Z,6.97
2016-11-25T09:13:48.429Z,6.94
2016-11-25T09:14:29.279Z,6.93